Wild Boar Gully, Santa Catalina Island Weather observations

Data are for 10 minute period ending at time listed.
 Day   Time   Solar   Ave.   Ave.  Ave.  Vector    Max.   Stn.    Total
  of    of     Rad.   Air    Rel.  Wind   Wind     Wind   Baro.  Precip.
Year   Day            Temp.  Hum.  Speed  Dir.     Gust   Pres.         
2016   (PST)   W/m2    F      %     mph   deg.      mph    mb.     in.  
------------------------------------------------------------------------
 207    0:00    0.0    65   96.7     3    109.0     4.2    999.0   0.00  
 207    0:10    0.0    65   96.6     1    148.7     3.0    999.0   0.00  
 207    0:20  999.0   999  999.0   999    999.0   999.0    999.0 999.00  
 207    0:30  999.0   999  999.0   999    999.0   999.0    999.0 999.00  
 207    0:40  999.0   999  999.0   999    999.0   999.0    999.0 999.00  
 207    0:50  999.0   999  999.0   999    999.0   999.0    999.0 999.00  
 207    1:00  999.0   999  999.0   999    999.0   999.0    999.0 999.00  
 207    1:10  999.0   999  999.0   999    999.0   999.0    999.0 999.00  
 207    1:20  999.0   999  999.0   999    999.0   999.0    999.0 999.00  
 207    1:30  999.0   999  999.0   999    999.0   999.0    999.0 999.00  
 207    1:40    0.0    65   96.5     1    236.8     2.4    999.0   0.00  
 207    1:50    0.0    65   96.4     1    217.6     1.8    999.0   0.00  
 207    2:00    0.0    65   96.4     2    266.2     4.2    999.0   0.00  
 207    2:10    0.0    65   96.2     2    329.1     3.6    999.0   0.00  
 207    2:20    0.0    65   96.2     1    328.3     3.0    999.0   0.00  
 207    2:30    0.0    65   96.1     2     26.9     3.6    999.0   0.00  
 207    2:40    0.0    65   95.9     2     27.8     3.0    999.0   0.00  
 207    2:50    0.0    65   95.9     1     10.8     2.4    999.0   0.00  
 207    3:00    0.0    65   95.8     1     15.7     0.6    999.0   0.00  
 207    3:10    0.0    65   95.8     1    334.4     0.6    999.0   0.00  
 207    3:20    0.0    64   95.8     2    290.8     3.6    999.0   0.00  
 207    3:30    0.0    64   95.8     1    264.0     3.6    999.0   0.00  
 207    3:40    0.0    64   95.7     2     90.5     2.4    999.0   0.00  
 207    3:50    0.0    64   95.7     2     81.1     2.4    999.0   0.00  
 207    4:00    0.0    64   95.7     1     65.4     2.4    999.0   0.00  
 207    4:10    0.0    64   95.8     2     73.1     3.6    999.0   0.00  
 207    4:20    0.0    65   95.6     3     97.9     6.0    999.0   0.00  
 207    4:30    0.0    65   95.3     3    111.7     4.2    999.0   0.00  
 207    4:40    0.0    65   95.4     2    105.8     3.0    999.0   0.00  
 207    4:50    0.0    65   95.5     3     68.4     4.8    999.0   0.00  
 207    5:00    0.0    65   95.8     3     60.4     4.8    999.0   0.00  
 207    5:10    0.0    65   95.8     4     43.5     6.0    999.0   0.00  
 207    5:20    6.0    65   95.8     1    356.0     2.4    999.0   0.00  
 207    5:30   11.0    65   95.8     2    295.1     3.0    999.0   0.00  
 207    5:40   10.0    65   96.0     1    275.0     3.0    999.0   0.00  
 207    5:50   23.0    65   96.0     1    331.2     1.8    999.0   0.00  
 207    6:00   49.0    65   95.8     1     49.3     0.6    999.0   0.00  
 207    6:10   38.0    65   95.6     1     94.5     2.4    999.0   0.00  
 207    6:20   38.0    66   95.5     2    145.2     4.8    999.0   0.00  
 207    6:30   38.0    66   95.7     4    131.0     5.4    999.0   0.00  
 207    6:40   66.0    66   95.7     3    124.1     4.8    999.0   0.00  
 207    6:50   86.0    66   95.5     3    125.4     4.8    999.0   0.00  
 207    7:00  153.0    66   95.1     2    141.5     4.8    999.0   0.00  
 207    7:10  214.0    68   93.2     3    134.7     4.8    999.0   0.00  
 207    7:20  174.0    68   91.8     4    139.4     6.0    999.0   0.00  
 207    7:30  231.0    68   91.8     3    147.4     5.4    999.0   0.00  
 207    7:40  185.0    68   91.7     5    128.5     7.8    999.0   0.00  
 207    7:50  178.0    67   93.0     6    132.6     9.0    999.0   0.00  
 207    8:00  243.0    67   93.5     5    134.4     7.8    999.0   0.00  
 207    8:10  374.0    68   92.1     6    129.3     8.4    999.0   0.00  
 207    8:20  323.0    68   90.8     6    131.5     8.4    999.0   0.00  
 207    8:30  412.0    68   91.1     6    134.0     9.0    999.0   0.00  
 207    8:40  464.0    70   88.7     5    129.4     9.6    999.0   0.00  
 207    8:50  504.0    72   84.6     3    117.0     7.2    999.0   0.00  
 207    9:00  529.0    74   77.6     3    198.7     6.0    999.0   0.00  
 207    9:10  548.0    70   85.8     5    223.2     7.2    999.0   0.00  
 207    9:20  570.0    72   82.2     4    225.5     6.0    999.0   0.00  
 207    9:30  590.0    71   85.2     4    226.3     6.0    999.0   0.00  
 207    9:40  610.0    72   82.8     4    222.1     5.4    999.0   0.00  
 207    9:50  649.0    73   81.1     5    151.0     8.4    999.0   0.00  
 207   10:00  607.0    71   85.0     5    126.6     8.4    999.0   0.00  
 207   10:10  999.0   999  999.0   999    999.0   999.0    999.0 999.00  
 207   10:20  673.0    71   83.8     7    129.7    11.3    999.0   0.00  
 207   10:30  685.0    71   84.0     7    118.1    10.8    999.0   0.00  
 207   10:40  694.0    72   83.2     6    137.7     9.6    999.0   0.00  
 207   10:50  709.0    75   75.8     4    120.4     7.8    999.0   0.00  
 207   11:00  717.0    74   76.4     6    254.7     9.0    999.0   0.00  
 207   11:10  724.0    72   82.7     6    241.4     7.8    999.0   0.00  
 207   11:20  731.0    72   82.4     5    240.8     7.2    999.0   0.00  
 207   11:30  737.0    72   82.0     5    233.1     8.4    999.0   0.00  
 207   11:40  738.0    73   80.9     6    241.8     8.4    999.0   0.00  
 207   11:50  740.0    72   82.0     6    247.3     7.8    999.0   0.00  
 207   12:00  746.0    72   81.4     6    242.6     8.4    999.0   0.00  
 207   12:10  745.0    71   83.3     6    241.8     8.4    999.0   0.00  
 207   12:20  743.0    73   80.9     6    242.7     9.0    999.0   0.00  
 207   12:30  741.0    72   81.5     7    228.1     9.0    999.0   0.00  
 207   12:40  736.0    74   79.0     8    223.7    11.3    999.0   0.00  
 207   12:50  732.0    75   76.8     8    220.1    12.5    999.0   0.00  
 207   13:00  726.0    76   74.1     8    255.5    13.1    999.0   0.00  
 207   13:10  721.0    75   75.9     9    242.8    13.1    999.0   0.00  
 207   13:20  711.0    75   76.8     9    247.6    14.3    999.0   0.00  
 207   13:30  706.0    76   76.5     8    245.2    12.5    999.0   0.00  
 207   13:40  665.0    76   76.6     7    238.3    11.3    999.0   0.00  
 207   13:50  681.0    76   76.0     7    229.1    10.2    999.0   0.00  
 207   14:00  644.0    75   77.3     8    246.4    10.8    999.0   0.00  
 207   14:10  648.0    76   75.6     9    264.5    14.3    999.0   0.00  
 207   14:20  631.0    77   73.1     8    245.4    13.7    999.0   0.00  
 207   14:30  614.0    77   72.8     7    221.5    10.8    999.0   0.00  
 207   14:40  597.0    77   72.1     6    235.9    10.2    999.0   0.00  
 207   14:50  579.0    77   72.1     6    226.1    10.8    999.0   0.00  
 207   15:00  560.0    77   71.7     7    231.8    10.2    999.0   0.00  
 207   15:10  479.0    76   73.0     7    233.8    11.3    999.0   0.00  
 207   15:20  430.0    76   73.8     8    239.2    11.3    999.0   0.00  
 207   15:30  441.0    74   77.4     8    236.2    12.5    999.0   0.00  
 207   15:40  484.0    75   76.4     7    230.6    10.2    999.0   0.00  
 207   15:50  452.0    74   77.3     8    254.5    13.1    999.0   0.00  
 207   16:00  423.0    75   76.0     8    245.3    11.9    999.0   0.00  
 207   16:10  398.0    76   74.2     9    257.8    13.7    999.0   0.00  
 207   16:20  374.0    76   72.9    10    269.1    13.7    999.0   0.00  
 207   16:30  349.0    78   69.2     9    266.5    14.9    999.0   0.00  
 207   16:40  324.0    77   69.4     8    266.1    11.9    999.0   0.00  
 207   16:50  299.0    78   67.0     7    268.9    10.8    999.0   0.00  
 207   17:00  274.0    78   67.0     7    278.8    10.8    999.0   0.00  
 207   17:10  247.0    77   69.3    10    285.8    13.7    999.0   0.00  
 207   17:20  220.0    76   72.9    10    282.7    13.1    999.0   0.00  
 207   17:30  188.0    74   76.2     9    280.8    13.7    999.0   0.00  
 207   17:40  169.0    73   79.0     8    277.2    14.9    999.0   0.00  
 207   17:50  146.0    73   78.8     7    272.5    11.3    999.0   0.00  
 207   18:00  121.0    72   81.0     7    250.8    13.7    999.0   0.00  
 207   18:10   97.0    71   84.6     9    261.3    13.7    999.0   0.00  
 207   18:20   77.0    70   86.9    11    266.2    15.5    999.0   0.00  
 207   18:30   54.0    69   88.1     8    256.6    13.7    999.0   0.00  
 207   18:40   34.0    68   89.1     9    272.1    13.7    999.0   0.00  
 207   18:50   19.0    68   89.5     8    260.3    11.9    999.0   0.00  
 207   19:00   11.0    68   88.9     7    266.6    11.3    999.0   0.00  
 207   19:10    6.0    68   87.8     3    252.4     7.8    999.0   0.00  
 207   19:20    0.0    69   85.7     3    217.5     6.6    999.0   0.00  
 207   19:30    0.0    68   86.1     4    244.1     7.8    999.0   0.00  
 207   19:40    0.0    68   86.4     2    224.4     4.2    999.0   0.00  
 207   19:50    0.0    68   84.5     2    135.7     2.4    999.0   0.00  
 207   20:00    0.0    69   83.5     3    157.4     4.2    999.0   0.00  
 207   20:10    0.0    68   84.3     4    167.7     5.4    999.0   0.00  
 207   20:20    0.0    68   87.0     3    129.4     4.8    999.0   0.00  
 207   20:30    0.0    68   86.8     1    109.1     2.4    999.0   0.00  
 207   20:40    0.0    67   88.1     3    139.2     4.8    999.0   0.00  
 207   20:50    0.0    67   89.7     2     97.1     4.8    999.0   0.00  
 207   21:00    0.0    67   89.3     1    209.2     3.6    999.0   0.00  
 207   21:10    0.0    66   90.1     3    234.6     4.2    999.0   0.00  
 207   21:20    0.0    66   91.2     2    270.0     4.2    999.0   0.00  
 207   21:30    0.0    66   91.9     1    264.2     3.0    999.0   0.00  
 207   21:40    0.0    66   91.8     2    246.0     3.6    999.0   0.00  
 207   21:50    0.0    65   92.0     2    276.0     3.6    999.0   0.00  
 207   22:00    0.0    65   92.2     1    357.6     0.6    999.0   0.00  
 207   22:10    0.0    65   92.2     2    231.8     3.0    999.0   0.00  
 207   22:20    0.0    65   91.9     1    247.3     2.4    999.0   0.00  
 207   22:30    0.0    65   91.9     1    115.1     0.6    999.0   0.00  
 207   22:40    0.0    66   92.1     1    111.4     1.8    999.0   0.00  
 207   22:50    0.0    66   92.3     2     93.1     4.2    999.0   0.00  
 207   23:00    0.0    66   92.5     3     94.1     4.8    999.0   0.00  
 207   23:10    0.0    66   92.3     4     75.0     5.4    999.0   0.00  
 207   23:20    0.0    66   92.6     5     92.9     6.6    999.0   0.00  
 207   23:30    0.0    66   93.1     4     86.9     5.4    999.0   0.00  

Return to Wild Boar Gully graphs page.


Western Regional Climate Center,wrcc@dri.edu